Terminal Aerodrome Forecast
Issued by NWS

Home | Current Version | Previous Version | Graphics & Text | Print | Product List | Glossary On
Versions: 1 2 3 4 5 6 7 8 9 10 11 12 13 14 15 16 17
000
FTUS43 KMPX 271720
TAFAXN
TAF
KAXN 271720Z 2718/2818 22008KT P6SM FEW050 BKN200
     FM280100 19010KT P6SM VCTS SCT050CB BKN120
      TEMPO 2802/2806 2SM TSRA OVC050CB
     FM280600 21008KT P6SM BKN050
     FM280900 29010KT P6SM BKN030
     FM281400 33013G19KT P6SM SCT030 BKN050=

USA.gov is the U.S. government's official web portal to all federal, state and local government web resources and services.